Atlanta Naval Air Station, Georgia
Current Conditions -  °F | °C
As of 3:58 PM on Saturday 20 Dec 2014 (Local Time) from KMGE Reporting Station
Overcast Overcast  
Wind Chill: 10°   Ceiling: 1100
Heat Index: 10°   Visibility: 10mi
Dew Point:   Wind: 3mph
Humidity: 85%   Direction: NA
Pressure: 30.15"   Gusts: NA
Location:  33.9252°N, 84.5422°W
Report Text: KMGE 202058Z VRB03KT 10SM OVC011 10/08 A3015 RMK AO2A SLP215 T00990075 55007 $
Loading
Personal Weather Stations






























Interactive Weather Map New forecast layout! Learn more

10-Day Weather Forecast

Advertisements
Track Severe Weather on mobile